Time;durP1;ratioP1;P1;durP2;ratioP2;P2;SDS_P1;SDS_P2;PMS_P1;PMS_P2;Temp;Humidity;BMP_temperature;BMP_pressure;BME280_temperature;BME280_humidity;BME280_pressure;Samples;Min_cycle;Max_cycle;Signal;HPM_P1;HPM_P2
2022/03/18 00:02:21;;;;;;;74.00;41.13;;;;;;;3.38;100.00;102098.44;5097566;28;20075;-72
2022/03/18 00:04:50;;;;;;;73.30;40.80;;;;;;;3.47;100.00;102104.56;5115755;28;20047;-72
2022/03/18 00:07:20;;;;;;;78.28;40.65;;;;;;;3.57;100.00;102101.94;5115622;28;20095;-72
2022/03/18 00:09:50;;;;;;;71.05;41.33;;;;;;;3.42;100.00;102097.53;5097674;28;20063;-72
2022/03/18 00:12:19;;;;;;;67.90;39.22;;;;;;;3.38;100.00;102103.72;5115737;28;20048;-72
2022/03/18 00:14:47;;;;;;;67.57;39.00;;;;;;;3.38;100.00;102101.09;5097059;28;20047;-72
2022/03/18 00:17:15;;;;;;;69.30;40.22;;;;;;;3.34;100.00;102109.88;5114989;28;20430;-73
2022/03/18 00:19:43;;;;;;;68.90;40.60;;;;;;;3.24;100.00;102112.50;5115124;28;20135;-73
2022/03/18 00:22:12;;;;;;;72.60;39.88;;;;;;;3.18;100.00;102118.66;5114768;28;20413;-72
2022/03/18 00:24:41;;;;;;;73.90;39.78;;;;;;;3.13;100.00;102112.50;5115241;28;20138;-73
2022/03/18 00:27:10;;;;;;;76.65;40.70;;;;;;;3.15;100.00;102126.56;5115064;28;20036;-73
2022/03/18 00:29:39;;;;;;;73.05;39.33;;;;;;;3.12;100.00;102126.59;5114840;28;20093;-72
2022/03/18 00:32:08;;;;;;;76.47;41.17;;;;;;;3.08;100.00;102122.16;5114708;28;20106;-72
2022/03/18 00:34:36;;;;;;;71.00;40.38;;;;;;;3.00;100.00;102124.81;5115030;28;20122;-71
2022/03/18 00:37:05;;;;;;;73.25;40.20;;;;;;;3.01;100.00;102126.59;5096604;28;20047;-71
2022/03/18 00:39:34;;;;;;;70.13;39.83;;;;;;;2.99;100.00;102132.72;5114830;28;20471;-71
2022/03/18 00:42:04;;;;;;;75.72;40.15;;;;;;;2.99;100.00;102124.78;5114273;28;20043;-71
2022/03/18 00:44:33;;;;;;;74.18;40.95;;;;;;;2.98;100.00;102125.69;5114922;28;20047;-71
2022/03/18 00:47:02;;;;;;;71.00;38.90;;;;;;;2.98;100.00;102126.56;5114701;28;20047;-72
2022/03/18 00:52:16;;;;;;;75.78;39.92;;;;;;;2.99;100.00;102130.06;5114078;28;20047;-71
2022/03/18 00:54:44;;;;;;;77.25;43.22;;;;;;;2.96;100.00;102128.31;5114679;28;20071;-71
2022/03/18 00:57:13;;;;;;;72.68;39.13;;;;;;;2.96;100.00;102125.69;5114218;28;20044;-74
2022/03/18 00:59:43;;;;;;;70.43;39.65;;;;;;;2.87;100.00;102123.91;5114359;28;20044;-74
2022/03/18 01:02:11;;;;;;;74.30;40.17;;;;;;;3.06;100.00;102130.09;5114260;28;20047;-74
2022/03/18 01:04:40;;;;;;;68.88;39.10;;;;;;;2.96;100.00;102140.63;5114527;28;20045;-73
2022/03/18 01:07:08;;;;;;;74.75;40.22;;;;;;;3.05;100.00;102149.41;5114140;28;20040;-71
2022/03/18 01:09:36;;;;;;;78.03;39.13;;;;;;;3.33;100.00;102152.94;5114437;28;20050;-71
2022/03/18 01:12:06;;;;;;;69.20;38.40;;;;;;;3.22;100.00;102153.84;5113739;28;20088;-72
2022/03/18 01:14:34;;;;;;;72.95;40.60;;;;;;;3.15;100.00;102155.56;5114006;28;20040;-72
2022/03/18 01:17:04;;;;;;;74.22;39.80;;;;;;;2.91;100.00;102152.94;5114008;28;20047;-72
2022/03/18 01:19:32;;;;;;;71.38;40.03;;;;;;;2.97;100.00;102152.91;5114307;28;20078;-72
2022/03/18 01:22:00;;;;;;;67.78;39.42;;;;;;;2.92;100.00;102147.66;5113948;28;20047;-74
2022/03/18 01:24:29;;;;;;;72.53;39.28;;;;;;;3.04;100.00;102146.78;5113780;28;20044;-73
2022/03/18 01:26:57;;;;;;;69.03;39.38;;;;;;;3.06;100.00;102150.28;5114039;28;20044;-77
2022/03/18 01:29:25;;;;;;;73.30;40.63;;;;;;;2.97;100.00;102145.88;5113963;28;20084;-72
2022/03/18 01:31:54;;;;;;;70.30;39.20;;;;;;;2.70;100.00;102149.38;5114035;28;20392;-72
2022/03/18 01:34:23;;;;;;;67.38;38.80;;;;;;;2.57;100.00;102155.47;5113289;28;20053;-72
2022/03/18 01:36:52;;;;;;;75.15;39.08;;;;;;;2.63;100.00;102155.50;5114008;28;20477;-70
2022/03/18 01:39:22;;;;;;;76.40;39.85;;;;;;;2.84;100.00;102149.41;5113685;28;20067;-71
2022/03/18 01:41:51;;;;;;;69.70;39.28;;;;;;;2.67;100.00;102148.47;5113912;28;20409;-70
2022/03/18 01:44:21;;;;;;;67.18;36.13;;;;;;;2.69;100.00;102154.63;5113436;28;20089;-71
2022/03/18 01:46:50;;;;;;;67.50;38.92;;;;;;;2.70;100.00;102153.75;5113732;28;20420;-71
2022/03/18 01:49:20;;;;;;;69.82;37.65;;;;;;;2.72;100.00;102149.38;5113531;28;20090;-70
2022/03/18 01:51:50;;;;;;;75.00;39.88;;;;;;;2.60;100.00;102155.47;5113589;28;20146;-70
2022/03/18 01:57:05;;;;;;;60.85;32.63;;;;;;;2.84;100.00;102158.19;5113251;28;20093;-70
2022/03/18 01:59:33;;;;;;;53.47;30.23;;;;;;;3.01;100.00;102160.84;5113492;28;20065;-72
2022/03/18 02:02:04;;;;;;;56.65;31.02;;;;;;;3.19;100.00;102167.91;5113185;28;20473;-72
2022/03/18 02:04:36;;;;;;;51.72;30.13;;;;;;;3.16;100.00;102158.22;5113552;28;20332;-71
2022/03/18 02:07:06;;;;;;;50.55;27.98;;;;;;;3.13;100.00;102168.75;5112995;28;20048;-72
2022/03/18 02:09:36;;;;;;;40.92;23.73;;;;;;;3.30;100.00;102171.41;5113114;28;20101;-72
2022/03/18 02:12:06;;;;;;;41.13;24.83;;;;;;;3.43;93.11;102173.16;5112603;28;20404;-72
2022/03/18 02:14:37;;;;;;;41.50;23.05;;;;;;;3.51;85.39;102174.94;5113262;28;20043;-72
2022/03/18 02:17:07;;;;;;;36.85;22.05;;;;;;;3.48;82.41;102170.53;5112607;28;20541;-73
2022/03/18 02:19:37;;;;;;;41.28;21.25;;;;;;;3.45;80.56;102176.69;5094112;28;20126;-73
2022/03/18 02:22:11;;;;;;;37.83;20.83;;;;;;;3.33;76.63;102181.97;5112659;28;20067;-75
2022/03/18 02:24:41;;;;;;;39.63;21.13;;;;;;;3.47;75.08;102178.44;5113316;28;20046;-73
2022/03/18 02:27:10;;;;;;;35.60;18.85;;;;;;;3.44;71.76;102185.47;5112530;28;20209;-73
2022/03/18 02:29:42;;;;;;;32.83;19.25;;;;;;;3.40;69.58;102178.47;5112751;28;20449;-73
2022/03/18 02:32:12;;;;;;;34.28;19.35;;;;;;;3.29;70.88;102185.50;5112599;28;20044;-73
2022/03/18 02:34:41;;;;;;;35.17;18.10;;;;;;;3.32;69.28;102190.75;5112608;28;20551;-73
2022/03/18 02:37:13;;;;;;;31.50;18.17;;;;;;;3.31;68.61;102189.00;5112520;28;20046;-73
2022/03/18 02:39:42;;;;;;;31.40;18.05;;;;;;;3.27;67.93;102183.72;5112521;28;20130;-73
2022/03/18 02:42:11;;;;;;;31.15;17.40;;;;;;;3.35;66.33;102184.59;5112129;28;20040;-73
2022/03/18 02:44:39;;;;;;;31.77;16.60;;;;;;;3.36;65.22;102187.22;5112597;28;20396;-73
2022/03/18 02:47:08;;;;;;;31.83;17.67;;;;;;;3.26;64.95;102193.38;5093959;28;20051;-73
2022/03/18 02:49:36;;;;;;;30.30;17.70;;;;;;;3.13;65.20;102197.78;5112426;28;20048;-73
2022/03/18 02:52:05;;;;;;;31.17;16.35;;;;;;;3.10;64.10;102196.91;5112254;28;20402;-74
2022/03/18 02:54:35;;;;;;;27.05;15.30;;;;;;;3.07;64.37;102204.78;5112532;28;20091;-73
2022/03/18 02:57:05;;;;;;;30.20;16.15;;;;;;;3.06;63.59;102208.31;5112395;28;20104;-77
2022/03/18 02:59:34;;;;;;;26.83;14.95;;;;;;;2.98;63.00;102213.56;5112456;28;20074;-73
2022/03/18 03:02:02;;;;;;;27.15;15.48;;;;;;;3.05;62.20;102214.47;5112348;28;20048;-73
2022/03/18 03:04:31;;;;;;;25.98;14.45;;;;;;;2.94;60.24;102213.56;5112038;28;20043;-74
2022/03/18 03:09:45;;;;;;;24.15;13.82;;;;;;;3.15;57.48;102218.88;5112440;28;20153;-73
2022/03/18 03:12:14;;;;;;;24.20;13.13;;;;;;;3.18;57.89;102226.78;5112097;28;20070;-73
2022/03/18 03:14:43;;;;;;;24.83;13.30;;;;;;;2.84;58.68;102239.88;5112315;28;20048;-72
2022/03/18 03:17:11;;;;;;;30.40;15.75;;;;;;;2.81;61.98;102239.00;5111601;28;20496;-73
2022/03/18 03:19:39;;;;;;;25.90;14.23;;;;;;;2.70;62.93;102245.97;5112382;28;20047;-72
2022/03/18 03:22:07;;;;;;;29.27;13.93;;;;;;;2.61;62.33;102244.22;5111581;28;20044;-72
2022/03/18 03:24:36;;;;;;;26.17;13.77;;;;;;;2.54;62.42;102263.50;5111933;28;20115;-71
2022/03/18 03:27:04;;;;;;;26.13;13.90;;;;;;;2.52;61.18;102265.25;5112282;28;20039;-72
2022/03/18 03:29:34;;;;;;;25.13;13.63;;;;;;;2.50;61.89;102262.56;5111962;28;20097;-72
2022/03/18 03:32:02;;;;;;;23.60;12.88;;;;;;;2.51;58.75;102274.00;5115791;28;20039;-71
2022/03/18 03:34:32;;;;;;;26.10;13.15;;;;;;;2.50;59.76;102277.50;5115998;28;20074;-71
2022/03/18 03:37:01;;;;;;;23.27;13.00;;;;;;;2.61;59.21;102277.59;5116755;28;20048;-72
2022/03/18 03:39:29;;;;;;;22.35;13.07;;;;;;;2.78;57.70;102266.22;5097669;28;20442;-74
2022/03/18 03:41:58;;;;;;;28.05;12.88;;;;;;;2.91;56.46;102268.91;5116263;28;20089;-74
2022/03/18 03:44:28;;;;;;;22.08;12.05;;;;;;;2.94;56.21;102276.81;5115518;28;20127;-75
2022/03/18 03:46:58;;;;;;;24.45;13.13;;;;;;;2.90;55.90;102277.69;5115901;28;20079;-74
2022/03/18 03:49:26;;;;;;;22.05;12.43;;;;;;;2.93;55.76;102283.84;5115678;28;20056;-74
2022/03/18 03:51:54;;;;;;;23.80;12.65;;;;;;;2.84;56.13;102282.06;5115613;28;20050;-74
2022/03/18 03:54:23;;;;;;;22.63;11.95;;;;;;;2.90;56.35;102288.25;5115306;28;20541;-75
2022/03/18 03:56:51;;;;;;;20.98;12.50;;;;;;;2.73;55.98;102283.78;5115753;28;20043;-75
2022/03/18 03:59:20;;;;;;;24.90;12.60;;;;;;;2.78;55.97;102287.28;5115343;28;20059;-76
2022/03/18 04:01:48;;;;;;;21.80;11.90;;;;;;;2.58;56.54;102299.50;5115869;28;20093;-76
2022/03/18 04:04:18;;;;;;;26.50;11.90;;;;;;;2.44;57.66;102312.59;5115516;28;20035;-76
2022/03/18 04:06:46;;;;;;;21.90;11.18;;;;;;;2.39;57.39;102318.72;5115377;28;20076;-76
2022/03/18 04:09:15;;;;;;;20.50;11.45;;;;;;;2.55;55.46;102310.91;5115316;28;20047;-73
2022/03/18 04:11:43;;;;;;;26.33;12.15;;;;;;;2.70;56.63;102310.13;5115716;28;20045;-73
2022/03/18 04:14:11;;;;;;;20.98;11.88;;;;;;;2.87;56.60;102313.69;5097162;28;20073;-75
2022/03/18 04:16:41;;;;;;;22.77;11.85;;;;;;;2.76;55.09;102318.03;5115362;28;20349;-73
2022/03/18 04:19:09;;;;;;;19.67;11.18;;;;;;;2.70;54.71;102315.41;5115288;28;20050;-76
2022/03/18 04:21:39;;;;;;;19.85;11.02;;;;;;;2.63;55.05;102316.22;5115048;28;20063;-76
2022/03/18 04:24:07;;;;;;;20.85;10.90;;;;;;;2.65;56.08;102322.38;5115234;28;20035;-76
2022/03/18 04:26:41;;;;;;;20.73;10.93;;;;;;;2.79;55.05;102322.44;5115437;28;20123;-75
2022/03/18 04:29:12;;;;;;;22.23;11.68;;;;;;;2.74;55.81;102325.06;5115051;28;20130;-77
2022/03/18 04:31:40;;;;;;;18.77;10.18;;;;;;;2.73;55.91;102328.56;5115615;28;20485;-76
2022/03/18 04:34:09;;;;;;;20.60;11.13;;;;;;;2.67;54.56;102336.44;5097028;28;20056;-76
2022/03/18 04:36:38;;;;;;;20.88;10.82;;;;;;;2.55;55.18;102331.09;5115272;28;20044;-76
2022/03/18 04:39:07;;;;;;;17.25;10.73;;;;;;;2.53;55.82;102335.50;5114876;28;20040;-76
2022/03/18 04:41:36;;;;;;;20.45;10.70;;;;;;;2.44;56.61;102343.34;5114237;28;20040;-75
2022/03/18 04:44:04;;;;;;;17.88;10.32;;;;;;;2.35;55.50;102348.53;5114558;28;20112;-75
2022/03/18 04:46:33;;;;;;;18.98;10.55;;;;;;;2.30;56.42;102349.38;5114447;28;20040;-76
2022/03/18 04:49:01;;;;;;;19.60;10.43;;;;;;;2.35;56.30;102354.69;5114866;28;20054;-75
2022/03/18 04:51:30;;;;;;;20.05;10.07;;;;;;;2.43;54.44;102363.53;5114335;28;20088;-75
2022/03/18 04:54:00;;;;;;;17.58;10.07;;;;;;;2.67;52.80;102357.53;5115002;28;20492;-76
2022/03/18 04:59:13;;;;;;;20.33;10.25;;;;;;;2.76;52.91;102378.66;5114034;28;20427;-76
2022/03/18 05:01:42;;;;;;;17.55;9.85;;;;;;;2.68;53.35;102382.13;5114431;28;20055;-76
2022/03/18 05:04:10;;;;;;;23.95;10.15;;;;;;;2.68;52.38;102379.47;5114362;28;20075;-73
2022/03/18 05:06:39;;;;;;;17.08;9.18;;;;;;;2.71;53.16;102384.78;5114207;28;20086;-73
2022/03/18 05:09:08;;;;;;;19.52;10.30;;;;;;;2.74;53.42;102388.31;5114428;28;20537;-73
2022/03/18 05:11:37;;;;;;;17.27;10.65;;;;;;;2.73;53.43;102398.84;5114289;28;20100;-73
2022/03/18 05:14:06;;;;;;;19.73;10.40;;;;;;;2.69;53.24;102397.94;5096251;28;20404;-73
2022/03/18 05:16:35;;;;;;;19.77;10.55;;;;;;;2.79;51.67;102407.66;5113992;28;20043;-73
2022/03/18 05:19:03;;;;;;;17.67;9.38;;;;;;;2.93;49.65;102404.25;5114250;28;20126;-73
2022/03/18 05:21:31;;;;;;;17.45;9.50;;;;;;;2.66;51.03;102408.47;5113892;28;20073;-73
2022/03/18 05:24:00;;;;;;;16.52;9.13;;;;;;;2.77;51.48;102403.25;5114251;28;20047;-73
2022/03/18 05:26:31;;;;;;;16.30;8.40;;;;;;;2.80;51.11;102403.28;5113472;28;20040;-73
2022/03/18 05:28:59;;;;;;;16.95;8.63;;;;;;;2.70;50.39;102397.09;5113959;28;20051;-73
2022/03/18 05:31:27;;;;;;;16.40;9.15;;;;;;;2.74;50.00;102401.50;5113278;28;20472;-74
2022/03/18 05:33:56;;;;;;;17.58;8.50;;;;;;;2.90;49.32;102396.31;5113866;28;20116;-74
2022/03/18 05:36:24;;;;;;;18.58;9.32;;;;;;;2.81;50.06;102411.22;5113775;28;20560;-75
2022/03/18 05:38:52;;;;;;;15.43;8.63;;;;;;;2.81;49.38;102408.56;5113632;28;20044;-75
2022/03/18 05:41:21;;;;;;;16.20;8.57;;;;;;;2.90;49.06;102412.13;5113695;28;20138;-76
2022/03/18 05:43:51;;;;;;;15.07;8.27;;;;;;;2.86;49.21;102420.00;5113962;28;20048;-77
2022/03/18 05:46:19;;;;;;;16.13;9.07;;;;;;;2.80;49.30;102414.72;5113590;28;20055;-76
2022/03/18 05:48:48;;;;;;;16.85;8.77;;;;;;;2.95;49.15;102426.22;5113786;28;20044;-76
2022/03/18 05:51:16;;;;;;;19.00;9.07;;;;;;;3.03;48.49;102419.22;5113420;28;20532;-77
2022/03/18 05:53:44;;;;;;;21.15;8.95;;;;;;;2.99;49.32;102422.72;5112886;28;20141;-74
2022/03/18 05:59:01;;;;;;;17.55;9.10;;;;;;;3.00;49.06;102432.41;5113117;28;20438;-73
2022/03/18 06:01:30;;;;;;;16.95;9.07;;;;;;;3.10;48.76;102431.59;5112591;28;20035;-73
2022/03/18 06:03:58;;;;;;;17.63;9.30;;;;;;;3.12;48.57;102435.09;5113203;28;20373;-73
2022/03/18 06:06:28;;;;;;;17.10;9.50;;;;;;;3.13;48.75;102447.41;5112634;28;20043;-73
2022/03/18 06:11:51;;;;;;;16.00;8.60;;;;;;;3.16;47.62;102455.31;5112895;28;20142;-71
2022/03/18 06:14:24;;;;;;;15.93;9.07;;;;;;;3.17;47.66;102447.41;5112897;28;20151;-73
2022/03/18 06:17:04;;;;;;;15.05;8.85;;;;;;;3.29;47.30;102453.66;5130247;27;20139;-69
2022/03/18 06:19:33;;;;;;;17.25;8.63;;;;;;;3.27;47.04;102460.66;5109424;28;20407;-70
2022/03/18 06:22:05;;;;;;;15.98;8.60;;;;;;;3.26;47.68;102457.13;5109127;28;20040;-71
2022/03/18 06:24:33;;;;;;;16.77;8.88;;;;;;;3.38;47.52;102461.63;5105290;28;20040;-71
2022/03/18 06:27:02;;;;;;;19.98;9.70;;;;;;;3.48;46.91;102462.53;5107933;28;20131;-71
2022/03/18 06:29:31;;;;;;;17.80;9.75;;;;;;;3.51;47.28;102467.81;5107821;28;20036;-71
2022/03/18 06:32:00;;;;;;;17.38;9.45;;;;;;;3.59;46.93;102468.75;5108088;28;20047;-72
2022/03/18 06:34:30;;;;;;;17.55;9.48;;;;;;;3.54;46.92;102471.34;5108453;28;20082;-69
2022/03/18 06:37:00;;;;;;;19.67;9.35;;;;;;;3.49;47.47;102480.13;5109151;28;20127;-70
2022/03/18 06:39:30;;;;;;;16.70;9.02;;;;;;;3.52;47.33;102474.84;5109123;28;20465;-71
2022/03/18 06:41:59;;;;;;;20.23;10.18;;;;;;;3.71;47.13;102474.94;5091350;28;20051;-70
2022/03/18 06:44:27;;;;;;;16.60;9.27;;;;;;;3.66;46.30;102486.34;5108977;28;20150;-71
2022/03/18 06:46:55;;;;;;;19.27;8.95;;;;;;;3.53;47.08;102489.81;5108908;28;20048;-69
2022/03/18 06:49:25;;;;;;;16.55;9.38;;;;;;;3.36;46.80;102476.53;5109655;28;20043;-67
2022/03/18 06:51:53;;;;;;;17.20;9.55;;;;;;;3.28;47.47;102488.78;5109123;28;20051;-69
2022/03/18 06:54:22;;;;;;;18.02;9.48;;;;;;;3.33;47.12;102493.22;5108462;28;20116;-73
2022/03/18 06:56:50;;;;;;;18.95;9.50;;;;;;;3.50;47.05;102489.81;5108567;28;20460;-68
2022/03/18 06:59:18;;;;;;;17.13;9.02;;;;;;;3.51;46.60;102487.16;5108666;28;20040;-68
2022/03/18 07:01:46;;;;;;;16.85;9.63;;;;;;;3.78;46.28;102490.81;5108650;28;20093;-68
2022/03/18 07:04:15;;;;;;;16.20;8.65;;;;;;;3.71;46.71;102497.81;5108375;28;20035;-68
2022/03/18 07:06:46;;;;;;;17.52;9.27;;;;;;;3.82;46.31;102493.44;5108804;28;20055;-69
2022/03/18 07:09:14;;;;;;;15.23;8.73;;;;;;;3.89;46.12;102504.91;5108680;28;20447;-69
2022/03/18 07:11:42;;;;;;;15.07;7.97;;;;;;;4.05;45.56;102500.53;5108177;28;20057;-70
2022/03/18 07:14:11;;;;;;;18.55;9.13;;;;;;;4.02;45.87;102499.66;5108229;28;20370;-70
2022/03/18 07:19:25;;;;;;;16.02;8.68;;;;;;;4.23;45.66;102503.22;5108529;28;20059;-72
2022/03/18 07:21:55;;;;;;;16.60;9.05;;;;;;;4.38;45.14;102513.81;5108047;28;20055;-70
2022/03/18 07:24:23;;;;;;;16.23;8.80;;;;;;;4.37;45.09;102511.19;5108291;28;20044;-71
2022/03/18 07:26:51;;;;;;;20.20;8.48;;;;;;;4.63;45.11;102511.19;5102802;28;20081;-71
2022/03/18 07:29:19;;;;;;;16.08;8.77;;;;;;;4.77;44.49;102512.09;5094666;28;20096;-70
2022/03/18 07:31:47;;;;;;;16.02;9.30;;;;;;;4.79;44.83;102512.97;5094537;28;20093;-71
2022/03/18 07:34:16;;;;;;;16.80;9.05;;;;;;;4.87;44.35;102521.78;5094739;28;20040;-71
2022/03/18 07:36:45;;;;;;;18.42;9.70;;;;;;;4.78;44.59;102521.78;5093780;28;20039;-71
2022/03/18 07:39:14;;;;;;;17.92;9.48;;;;;;;4.63;44.78;102525.28;5094481;28;20064;-71
2022/03/18 07:41:43;;;;;;;18.33;9.27;;;;;;;4.97;43.98;102531.47;5094373;28;20079;-72
2022/03/18 07:44:11;;;;;;;15.68;8.98;;;;;;;5.06;43.95;102534.09;5094515;28;20097;-70
2022/03/18 07:46:40;;;;;;;18.45;9.82;;;;;;;4.97;43.82;102528.81;5094514;28;20047;-71
2022/03/18 07:49:09;;;;;;;17.17;9.55;;;;;;;4.95;43.59;102535.00;5094348;28;20043;-69
2022/03/18 07:51:37;;;;;;;14.50;8.75;;;;;;;4.84;44.56;102545.59;5094430;28;20067;-70
2022/03/18 07:54:05;;;;;;;17.52;8.77;;;;;;;5.00;44.27;102542.03;5093765;28;20066;-70
2022/03/18 07:56:34;;;;;;;18.75;9.90;;;;;;;5.06;44.39;102544.69;5093338;28;20052;-70
2022/03/18 07:59:02;;;;;;;22.48;10.35;;;;;;;5.08;44.72;102542.03;5093932;28;20050;-71
2022/03/18 08:01:31;;;;;;;21.48;9.75;;;;;;;5.43;43.73;102539.31;5093674;28;20118;-69
2022/03/18 08:04:00;;;;;;;20.35;9.63;;;;;;;5.46;43.24;102539.31;5093093;28;20549;-69
2022/03/18 08:06:30;;;;;;;18.88;9.05;;;;;;;5.53;43.29;102548.13;5093105;28;20516;-70
2022/03/18 08:08:58;;;;;;;18.80;10.23;;;;;;;5.50;43.74;102546.38;5075144;28;20473;-70
2022/03/18 08:11:27;;;;;;;19.05;10.38;;;;;;;5.65;43.48;102548.97;5093482;28;20051;-70
2022/03/18 08:13:57;;;;;;;21.10;10.95;;;;;;;5.65;44.13;102556.91;5093496;28;20138;-70
2022/03/18 08:16:26;;;;;;;16.90;9.80;;;;;;;5.72;44.20;102553.34;5074601;28;20358;-70
2022/03/18 08:18:57;;;;;;;20.13;10.88;;;;;;;5.63;44.89;102558.69;5092999;28;20120;-71
2022/03/18 08:21:25;;;;;;;17.95;10.75;;;;;;;5.61;45.02;102565.75;5093134;28;20043;-69
2022/03/18 08:23:53;;;;;;;19.20;11.00;;;;;;;5.65;45.17;102566.63;5092901;28;20072;-70
2022/03/18 08:26:21;;;;;;;19.10;11.13;;;;;;;5.66;45.79;102571.91;5092771;28;20040;-71
2022/03/18 08:28:50;;;;;;;20.85;12.25;;;;;;;5.85;46.32;102569.19;5092680;28;20043;-70
2022/03/18 08:31:19;;;;;;;19.70;11.98;;;;;;;5.94;46.15;102569.19;5093186;28;20040;-71
2022/03/18 08:33:48;;;;;;;21.10;11.60;;;;;;;6.06;45.26;102571.78;5093221;28;20047;-71
2022/03/18 08:36:20;;;;;;;19.67;11.80;;;;;;;6.08;44.40;102577.97;5093401;28;20043;-71
2022/03/18 08:38:48;;;;;;;19.33;11.98;;;;;;;5.92;44.65;102581.56;5091881;28;20074;-71
2022/03/18 08:41:16;;;;;;;20.38;11.77;;;;;;;5.82;45.35;102585.09;5093099;28;20042;-70
2022/03/18 08:43:45;;;;;;;23.48;11.98;;;;;;;5.77;45.80;102576.28;5092951;28;20082;-70
2022/03/18 08:46:14;;;;;;;21.80;11.70;;;;;;;6.15;45.84;102584.09;5092705;28;20056;-70
2022/03/18 08:48:44;;;;;;;22.88;12.77;;;;;;;6.07;46.31;102581.47;5092833;28;20040;-70
2022/03/18 08:51:12;;;;;;;25.60;13.73;;;;;;;6.10;46.22;102586.78;5092830;28;20143;-70
2022/03/18 08:53:41;;;;;;;22.52;12.98;;;;;;;6.28;45.70;102580.53;5092382;28;20075;-70
2022/03/18 08:56:09;;;;;;;24.23;13.18;;;;;;;6.42;45.78;102593.69;5092803;28;20097;-70
2022/03/18 08:58:38;;;;;;;25.00;13.05;;;;;;;6.48;46.07;102591.00;5092292;28;20044;-70
2022/03/18 09:01:12;;;;;;;25.13;13.65;;;;;;;6.40;47.02;102600.78;5092792;28;20192;-70
2022/03/18 09:03:42;;;;;;;25.30;13.82;;;;;;;6.19;46.67;102597.34;5092146;28;20044;-70
2022/03/18 09:06:14;;;;;;;27.98;14.80;;;;;;;6.35;47.23;102597.25;5092778;28;20032;-69
2022/03/18 09:08:44;;;;;;;25.60;14.05;;;;;;;6.46;46.75;102600.72;5092457;28;20067;-70
2022/03/18 09:11:12;;;;;;;25.73;13.85;;;;;;;6.48;46.02;102609.56;5092082;28;20109;-70
2022/03/18 09:13:40;;;;;;;24.95;14.82;;;;;;;6.34;47.35;102606.09;5092280;28;20460;-70
2022/03/18 09:16:08;;;;;;;26.45;15.07;;;;;;;6.34;48.00;102600.78;5092273;28;20074;-70
2022/03/18 09:18:57;;;;;;;26.48;14.57;;;;;;;6.42;47.84;102607.81;5091765;28;20143;-70
2022/03/18 09:21:26;;;;;;;26.85;15.00;;;;;;;6.51;48.73;102607.78;5092480;28;20044;-70
2022/03/18 09:23:55;;;;;;;29.08;15.38;;;;;;;6.69;48.46;102601.47;5091714;28;20079;-70
2022/03/18 09:26:23;;;;;;;25.98;15.50;;;;;;;6.80;47.91;102604.03;5092242;28;20112;-70
2022/03/18 09:28:51;;;;;;;31.20;15.43;;;;;;;6.77;47.82;102602.31;5073983;28;20054;-70
2022/03/18 09:31:20;;;;;;;29.17;15.88;;;;;;;6.72;47.31;102598.78;5092219;28;20372;-70
2022/03/18 09:33:48;;;;;;;29.50;15.10;;;;;;;6.78;47.50;102603.19;5091706;28;20048;-70
2022/03/18 09:36:18;;;;;;;30.23;15.57;;;;;;;6.92;47.76;102605.72;5091794;28;20043;-70
2022/03/18 09:38:49;;;;;;;27.25;16.10;;;;;;;6.96;48.36;102602.16;5091466;28;20051;-70
2022/03/18 09:41:18;;;;;;;28.80;15.25;;;;;;;7.12;47.84;102611.75;5073862;28;20048;-70
2022/03/18 09:43:46;;;;;;;26.65;14.65;;;;;;;7.19;47.28;102608.16;5091171;28;20048;-70
2022/03/18 09:46:16;;;;;;;26.92;15.38;;;;;;;7.34;46.87;102604.50;5091177;28;20040;-70
2022/03/18 09:49:01;;;;;;;28.58;15.60;;;;;;;7.66;46.04;102612.13;5091256;28;20133;-71
2022/03/18 09:51:30;;;;;;;29.38;15.93;;;;;;;7.72;45.59;102606.72;5072565;28;20123;-70
2022/03/18 09:54:18;;;;;;;28.08;15.43;;;;;;;7.52;46.28;102608.72;5091499;28;20040;-70
2022/03/18 09:56:49;;;;;;;29.00;16.45;;;;;;;7.35;46.88;102612.44;5072848;28;20044;-71
2022/03/18 09:59:17;;;;;;;30.17;15.75;;;;;;;7.33;47.15;102608.91;5091653;28;20040;-71
2022/03/18 10:01:45;;;;;;;26.65;15.35;;;;;;;7.39;47.47;102613.28;5091278;28;20465;-71
2022/03/18 10:04:20;;;;;;;31.42;16.60;;;;;;;7.24;48.38;102611.66;5091726;28;20071;-69
2022/03/18 10:06:49;;;;;;;26.25;15.20;;;;;;;7.36;47.05;102618.63;5091516;28;20384;-71
2022/03/18 10:09:28;;;;;;;23.65;14.95;;;;;;;7.31;47.66;102616.00;5091797;28;20040;-70
2022/03/18 10:11:59;;;;;;;26.67;15.20;;;;;;;7.35;47.69;102615.09;5091135;28;20067;-70
2022/03/18 10:14:28;;;;;;;27.77;16.65;;;;;;;7.25;47.63;102620.50;5091808;28;20505;-70
2022/03/18 10:17:01;;;;;;;30.77;16.25;;;;;;;7.11;48.06;102617.94;5091363;28;20060;-70
2022/03/18 10:19:30;;;;;;;29.38;16.58;;;;;;;7.14;48.73;102617.91;5091646;28;20036;-70
2022/03/18 10:22:01;;;;;;;27.38;16.48;;;;;;;7.14;48.18;102617.91;5091571;28;20469;-70
2022/03/18 10:24:34;;;;;;;32.97;17.80;;;;;;;7.27;49.79;102621.38;5091358;28;20040;-70
2022/03/18 10:27:14;;;;;;;29.38;16.55;;;;;;;7.30;49.63;102616.91;5091339;28;20090;-70
2022/03/18 10:29:43;;;;;;;30.27;17.70;;;;;;;7.32;49.54;102612.44;5091089;28;20071;-70
2022/03/18 10:32:12;;;;;;;30.45;16.73;;;;;;;7.40;49.48;102621.22;5091594;28;20127;-70
2022/03/18 10:37:42;;;;;;;30.58;17.95;;;;;;;7.59;49.45;102621.06;5043651;28;20052;-70
2022/03/18 10:40:13;;;;;;;;;;;;;;;7.69;51.61;102612.97;5091900;28;20435;-69
2022/03/18 10:42:42;;;;;;;33.17;18.25;;;;;;;7.93;50.60;102613.59;5091321;28;20392;-71
2022/03/18 10:45:10;;;;;;;29.88;17.45;;;;;;;8.18;50.65;102616.81;5091409;28;20466;-71
2022/03/18 10:47:40;;;;;;;30.83;17.83;;;;;;;8.46;50.10;102622.69;5090942;28;20138;-80
2022/03/18 10:50:24;;;;;;;32.05;18.80;;;;;;;8.51;49.41;102613.75;5091365;28;20047;-70
2022/03/18 10:53:08;;;;;;;30.73;18.52;;;;;;;8.43;49.72;102618.31;5090893;28;20051;-70
2022/03/18 10:55:40;;;;;;;30.70;18.27;;;;;;;8.47;50.23;102620.00;5091420;28;20051;-70
2022/03/18 10:58:10;;;;;;;38.47;19.70;;;;;;;8.58;51.85;102623.38;5090891;28;20040;-70
2022/03/18 11:00:43;;;;;;;36.00;19.42;;;;;;;8.55;52.49;102618.13;5091189;28;20048;-70
2022/03/18 11:03:13;;;;;;;35.33;19.75;;;;;;;8.47;52.91;102616.47;5094051;28;20040;-71
2022/03/18 11:05:43;;;;;;;36.35;20.73;;;;;;;8.64;53.01;102618.91;5076348;28;20459;-70
2022/03/18 11:08:14;;;;;;;34.55;20.23;;;;;;;8.56;52.77;102614.56;5094603;28;20446;-70
2022/03/18 11:13:40;;;;;;;32.95;20.25;;;;;;;8.37;54.56;102612.19;5094503;28;20568;-70
2022/03/18 11:16:11;;;;;;;34.33;19.85;;;;;;;8.40;54.88;102607.72;5094738;28;20113;-70
2022/03/18 11:18:40;;;;;;;35.00;21.35;;;;;;;8.40;55.24;102601.53;5094104;28;20036;-70
2022/03/18 11:21:10;;;;;;;36.63;21.42;;;;;;;8.23;55.62;102599.06;5094443;28;20048;-70
2022/03/18 11:23:40;;;;;;;41.97;21.50;;;;;;;8.38;55.57;102592.66;5093939;28;20546;-71
2022/03/18 11:26:12;;;;;;;37.55;21.50;;;;;;;8.54;54.50;102596.88;5094220;28;20044;-71
2022/03/18 11:28:41;;;;;;;35.47;21.17;;;;;;;8.44;53.92;102592.59;5094259;28;20396;-70
2022/03/18 11:31:10;;;;;;;38.60;21.52;;;;;;;8.38;54.16;102588.22;5094605;28;20090;-70
2022/03/18 11:33:39;;;;;;;32.80;19.40;;;;;;;8.48;53.26;102592.50;5094209;28;20036;-70
2022/03/18 11:36:25;;;;;;;34.17;20.67;;;;;;;8.64;52.61;102585.19;5094161;28;20047;-71
2022/03/18 11:39:02;;;;;;;35.70;20.90;;;;;;;8.45;52.76;102579.25;5094075;28;20044;-70
2022/03/18 11:41:56;;;;;;;37.60;21.25;;;;;;;8.49;53.37;102582.75;5076030;28;20469;-70
2022/03/18 11:44:55;;;;;;;38.13;21.42;;;;;;;8.28;54.22;102582.13;5090450;28;20052;-70
2022/03/18 11:47:41;;;;;;;35.75;20.23;;;;;;;8.39;54.98;102573.13;5094327;28;20066;-72
2022/03/18 11:50:41;;;;;;;35.90;20.55;;;;;;;8.54;54.70;102572.94;5094305;28;20047;-71
2022/03/18 11:53:13;;;;;;;37.13;20.77;;;;;;;8.52;55.29;102575.63;5093957;28;20130;-71
2022/03/18 11:55:44;;;;;;;34.80;20.98;;;;;;;8.30;54.66;102572.38;5094172;28;20068;-70